createdAt,value
2023-04-27T00:00:17.002Z,31.09
2023-04-27T00:01:17.032Z,31.00
2023-04-27T00:02:17.131Z,30.97
2023-04-27T00:03:17.305Z,30.94
2023-04-27T00:04:17.296Z,30.91
2023-04-27T00:05:17.269Z,30.89
2023-04-27T00:06:17.209Z,30.88
2023-04-27T00:07:17.219Z,30.87
2023-04-27T00:08:17.277Z,30.84
2023-04-27T00:09:17.294Z,30.83
2023-04-27T00:10:17.340Z,30.83
2023-04-27T00:11:17.759Z,30.83
2023-04-27T00:12:17.772Z,30.85
2023-04-27T00:13:17.784Z,30.82
2023-04-27T00:14:17.763Z,30.81
2023-04-27T00:15:17.776Z,30.82
2023-04-27T00:16:17.785Z,30.82
2023-04-27T00:17:17.760Z,30.80
2023-04-27T00:18:17.759Z,30.82
2023-04-27T00:19:17.758Z,30.82
2023-04-27T00:20:17.793Z,30.80
2023-04-27T00:21:17.834Z,30.84
2023-04-27T00:22:17.897Z,30.81
2023-04-27T00:23:17.940Z,30.82
2023-04-27T00:24:17.971Z,30.84
2023-04-27T00:25:18.031Z,30.82
2023-04-27T00:26:18.086Z,30.82
2023-04-27T00:27:18.132Z,30.81
2023-04-27T00:28:18.177Z,30.79
2023-04-27T00:29:18.251Z,30.80
2023-04-27T00:30:18.278Z,30.80
2023-04-27T00:31:18.331Z,30.80
2023-04-27T00:32:18.352Z,30.79
2023-04-27T00:33:18.395Z,30.80
2023-04-27T00:34:18.421Z,30.80
2023-04-27T00:35:18.470Z,30.78
2023-04-27T00:36:18.510Z,30.80
2023-04-27T00:37:18.551Z,30.79
2023-04-27T00:38:18.592Z,30.79
2023-04-27T00:39:18.639Z,30.78
2023-04-27T00:40:18.675Z,30.79
2023-04-27T00:41:18.722Z,30.77
2023-04-27T00:42:18.769Z,30.75
2023-04-27T00:43:18.805Z,30.78
2023-04-27T00:44:18.849Z,30.77
2023-04-27T00:45:18.931Z,30.78
2023-04-27T00:46:18.960Z,30.78
2023-04-27T00:47:19.023Z,30.77
2023-04-27T00:48:19.021Z,30.77
2023-04-27T00:49:19.064Z,30.79
2023-04-27T00:50:19.115Z,30.79
2023-04-27T00:51:19.157Z,30.77
2023-04-27T00:52:19.214Z,30.78
2023-04-27T00:53:19.237Z,30.78
2023-04-27T00:54:19.295Z,30.77
2023-04-27T00:55:19.322Z,30.77
2023-04-27T00:56:19.365Z,30.75
2023-04-27T00:57:19.400Z,30.77
2023-04-27T00:58:19.447Z,30.76
2023-04-27T00:59:19.483Z,30.76
2023-04-27T01:00:19.539Z,30.75
2023-04-27T01:01:19.650Z,30.76
2023-04-27T01:02:19.797Z,30.77
2023-04-27T01:03:19.773Z,30.76
2023-04-27T01:04:19.931Z,30.77
2023-04-27T01:05:19.755Z,30.75
2023-04-27T01:06:19.804Z,30.75
2023-04-27T01:07:19.848Z,30.74
2023-04-27T01:08:19.908Z,30.76
2023-04-27T01:09:20.008Z,30.76
2023-04-27T01:10:19.981Z,30.74
2023-04-27T01:11:20.044Z,30.74
2023-04-27T01:12:20.065Z,30.74
2023-04-27T01:13:20.109Z,30.74
2023-04-27T01:14:20.151Z,30.74
2023-04-27T01:15:20.203Z,30.73
2023-04-27T01:16:20.292Z,30.74
2023-04-27T01:17:20.298Z,30.74
2023-04-27T01:18:20.328Z,30.75
2023-04-27T01:19:21.044Z,30.73
2023-04-27T01:20:20.433Z,30.74
2023-04-27T01:21:20.481Z,30.74
2023-04-27T01:22:20.510Z,30.75
2023-04-27T01:23:20.560Z,30.74
2023-04-27T01:24:20.611Z,30.75
2023-04-27T01:25:20.664Z,30.75
2023-04-27T01:26:20.709Z,30.75
2023-04-27T01:27:20.753Z,30.74
2023-04-27T01:28:21.482Z,30.75
2023-04-27T01:29:20.837Z,30.76
2023-04-27T01:30:20.872Z,30.73
2023-04-27T01:31:20.999Z,30.75
2023-04-27T01:32:20.972Z,30.75
2023-04-27T01:33:21.062Z,30.74
2023-04-27T01:34:21.068Z,30.74
2023-04-27T01:35:21.097Z,30.74
2023-04-27T01:36:21.146Z,30.73
2023-04-27T01:37:21.199Z,30.75
2023-04-27T01:38:21.245Z,30.73
2023-04-27T01:39:21.272Z,30.74
2023-04-27T01:40:22.193Z,30.74
2023-04-27T01:41:21.377Z,30.75
2023-04-27T01:42:21.450Z,30.75
2023-04-27T01:43:21.479Z,30.76
2023-04-27T01:44:21.543Z,30.77
2023-04-27T01:45:21.586Z,30.75
2023-04-27T01:46:21.659Z,30.74
2023-04-27T01:47:21.680Z,30.74
2023-04-27T01:48:21.731Z,30.73
2023-04-27T01:49:21.806Z,30.74
2023-04-27T01:50:22.190Z,30.73
2023-04-27T01:51:22.198Z,30.73
2023-04-27T01:52:22.203Z,30.74
2023-04-27T01:53:22.193Z,30.72
2023-04-27T01:54:22.196Z,30.71
2023-04-27T01:55:22.560Z,30.74
2023-04-27T01:56:22.222Z,30.73
2023-04-27T01:57:22.196Z,30.72
2023-04-27T01:58:22.184Z,30.73
2023-04-27T01:59:22.234Z,30.72
2023-04-27T02:00:22.274Z,30.73
2023-04-27T02:01:22.355Z,30.73
2023-04-27T02:02:22.431Z,30.73
2023-04-27T02:03:22.587Z,30.74
2023-04-27T02:04:22.550Z,30.73
2023-04-27T02:05:22.519Z,30.74
2023-04-27T02:06:22.552Z,30.72
2023-04-27T02:07:22.614Z,30.73
2023-04-27T02:08:22.639Z,30.73
2023-04-27T02:09:22.682Z,30.72
2023-04-27T02:10:23.084Z,30.74
2023-04-27T02:11:23.125Z,30.73
2023-04-27T02:12:23.132Z,30.74
2023-04-27T02:13:23.126Z,30.75
2023-04-27T02:14:23.132Z,30.74
2023-04-27T02:15:23.145Z,30.75
2023-04-27T02:16:23.156Z,30.75
2023-04-27T02:17:23.138Z,30.74
2023-04-27T02:18:23.148Z,30.74
2023-04-27T02:19:23.125Z,30.71
2023-04-27T02:20:24.074Z,30.73
2023-04-27T02:21:23.243Z,30.75
2023-04-27T02:22:23.269Z,30.75
2023-04-27T02:23:23.315Z,30.73
2023-04-27T02:24:23.354Z,30.71
2023-04-27T02:25:23.400Z,30.72
2023-04-27T02:26:23.446Z,30.73
2023-04-27T02:27:23.501Z,30.71
2023-04-27T02:28:23.534Z,30.72
2023-04-27T02:29:23.580Z,30.73
2023-04-27T02:30:23.648Z,30.71
2023-04-27T02:31:23.728Z,30.71
2023-04-27T02:32:23.785Z,30.72
2023-04-27T02:33:23.789Z,30.71
2023-04-27T02:34:23.827Z,30.72
2023-04-27T02:35:23.883Z,30.72
2023-04-27T02:36:23.933Z,30.72
2023-04-27T02:37:24.000Z,30.72
2023-04-27T02:38:24.023Z,30.70
2023-04-27T02:39:24.064Z,30.72
2023-04-27T02:40:24.121Z,30.71
2023-04-27T02:41:27.076Z,30.70
2023-04-27T02:42:24.169Z,30.72
2023-04-27T02:43:24.158Z,30.70
2023-04-27T02:44:24.149Z,30.71
2023-04-27T02:45:24.144Z,30.71
2023-04-27T02:46:24.182Z,30.71
2023-04-27T02:47:24.183Z,30.71
2023-04-27T02:48:24.120Z,30.71
2023-04-27T02:49:27.079Z,30.73
2023-04-27T02:50:24.120Z,30.72
2023-04-27T02:51:24.106Z,30.71
2023-04-27T02:52:24.085Z,30.71
2023-04-27T02:53:24.103Z,30.72
2023-04-27T02:54:24.073Z,30.72
2023-04-27T02:55:24.061Z,30.71
2023-04-27T02:56:24.059Z,30.70
2023-04-27T02:57:24.071Z,30.70
2023-04-27T02:58:24.069Z,30.71
2023-04-27T02:59:24.040Z,30.71
2023-04-27T03:00:24.054Z,30.71
2023-04-27T03:01:24.065Z,30.71
2023-04-27T03:02:24.101Z,30.67
2023-04-27T03:03:24.173Z,30.69
2023-04-27T03:04:24.166Z,30.70
2023-04-27T03:05:23.997Z,30.68
2023-04-27T03:06:23.991Z,30.69
2023-04-27T03:07:23.974Z,30.69
2023-04-27T03:08:23.978Z,30.69
2023-04-27T03:09:23.984Z,30.70
2023-04-27T03:10:23.951Z,30.70
2023-04-27T03:11:23.947Z,30.71
2023-04-27T03:12:23.934Z,30.70
2023-04-27T03:13:23.953Z,30.70
2023-04-27T03:14:23.923Z,30.69
2023-04-27T03:15:23.915Z,30.70
2023-04-27T03:16:23.972Z,30.70
2023-04-27T03:17:23.933Z,30.69
2023-04-27T03:18:24.015Z,30.69
2023-04-27T03:19:24.020Z,30.68
2023-04-27T03:20:24.077Z,30.69
2023-04-27T03:21:24.140Z,30.70
2023-04-27T03:22:24.193Z,30.70
2023-04-27T03:23:24.280Z,30.70
2023-04-27T03:24:24.307Z,30.72
2023-04-27T03:25:24.391Z,30.67
2023-04-27T03:26:24.414Z,30.70
2023-04-27T03:27:24.471Z,30.70
2023-04-27T03:28:24.528Z,30.70
2023-04-27T03:29:24.579Z,30.67
2023-04-27T03:30:24.632Z,30.70
2023-04-27T03:31:24.700Z,30.69
2023-04-27T03:32:24.746Z,30.70
2023-04-27T03:33:24.792Z,30.71
2023-04-27T03:34:24.855Z,30.70
2023-04-27T03:35:24.915Z,30.71
2023-04-27T03:36:24.972Z,30.68
2023-04-27T03:37:25.009Z,30.71
2023-04-27T03:38:25.064Z,30.68
2023-04-27T03:39:25.103Z,30.68
2023-04-27T03:40:26.128Z,30.69
2023-04-27T03:41:25.195Z,30.69
2023-04-27T03:42:25.258Z,30.69
2023-04-27T03:43:25.288Z,30.69
2023-04-27T03:44:25.343Z,30.70
2023-04-27T03:45:25.381Z,30.71
2023-04-27T03:46:25.550Z,30.71
2023-04-27T03:47:25.506Z,30.71
2023-04-27T03:48:25.507Z,30.67
2023-04-27T03:49:25.550Z,30.70
2023-04-27T03:50:25.602Z,30.71
2023-04-27T03:51:26.605Z,30.69
2023-04-27T03:52:26.110Z,30.70
2023-04-27T03:53:25.728Z,30.70
2023-04-27T03:54:25.785Z,30.70
2023-04-27T03:55:25.832Z,30.72
2023-04-27T03:56:25.910Z,30.71
2023-04-27T03:57:25.935Z,30.70
2023-04-27T03:58:25.981Z,30.71
2023-04-27T03:59:26.027Z,30.71
2023-04-27T04:00:26.075Z,30.71
2023-04-27T04:01:26.129Z,30.71
2023-04-27T04:02:26.316Z,30.71
2023-04-27T04:03:26.490Z,30.72
2023-04-27T04:04:26.442Z,30.73
2023-04-27T04:05:26.360Z,30.73
2023-04-27T04:06:26.398Z,30.72
2023-04-27T04:07:26.450Z,30.70
2023-04-27T04:08:26.519Z,30.71
2023-04-27T04:09:26.574Z,30.70
2023-04-27T04:10:26.621Z,30.73
2023-04-27T04:11:26.660Z,30.70
2023-04-27T04:12:26.843Z,30.70
2023-04-27T04:13:26.758Z,30.72
2023-04-27T04:14:26.807Z,30.71
2023-04-27T04:15:26.865Z,30.70
2023-04-27T04:16:26.961Z,30.72
2023-04-27T04:17:26.995Z,30.70
2023-04-27T04:18:27.033Z,30.71
2023-04-27T04:19:27.099Z,30.72
2023-04-27T04:20:27.134Z,30.72
2023-04-27T04:21:27.183Z,30.71
2023-04-27T04:22:27.234Z,30.69
2023-04-27T04:23:27.258Z,30.69
2023-04-27T04:24:27.306Z,30.71
2023-04-27T04:25:27.358Z,30.71
2023-04-27T04:26:27.402Z,30.70
2023-04-27T04:27:27.461Z,30.72
2023-04-27T04:28:27.533Z,30.72
2023-04-27T04:29:28.182Z,30.71
2023-04-27T04:30:27.607Z,30.70
2023-04-27T04:31:27.721Z,30.72
2023-04-27T04:32:28.649Z,30.70
2023-04-27T04:33:27.748Z,30.69
2023-04-27T04:34:28.150Z,30.72
2023-04-27T04:35:28.188Z,30.72
2023-04-27T04:36:28.193Z,30.71
2023-04-27T04:37:28.219Z,30.71
2023-04-27T04:38:28.205Z,30.72
2023-04-27T04:39:28.219Z,30.72
2023-04-27T04:40:28.190Z,30.73
2023-04-27T04:41:28.181Z,30.73
2023-04-27T04:42:28.199Z,30.73
2023-04-27T04:43:28.198Z,30.71
2023-04-27T04:44:28.259Z,30.73
2023-04-27T04:45:28.278Z,30.73
2023-04-27T04:46:28.406Z,30.72
2023-04-27T04:47:28.404Z,30.73
2023-04-27T04:48:28.428Z,30.73
2023-04-27T04:49:28.643Z,30.73
2023-04-27T04:50:28.523Z,30.72
2023-04-27T04:51:28.571Z,30.72
2023-04-27T04:52:28.612Z,30.70
2023-04-27T04:53:35.632Z,30.71
2023-04-27T04:54:28.654Z,30.73
2023-04-27T04:55:28.640Z,30.72
2023-04-27T04:56:28.633Z,30.72
2023-04-27T04:57:28.623Z,30.72
2023-04-27T04:58:28.613Z,30.71
2023-04-27T04:59:30.364Z,30.72
2023-04-27T05:00:28.648Z,30.73
2023-04-27T05:01:28.647Z,30.74
2023-04-27T05:02:28.764Z,30.72
2023-04-27T05:03:29.250Z,30.72
2023-04-27T05:04:28.920Z,30.73
2023-04-27T05:05:28.583Z,30.73
2023-04-27T05:06:28.576Z,30.74
2023-04-27T05:07:28.562Z,30.74
2023-04-27T05:08:28.572Z,30.74
2023-04-27T05:09:28.568Z,30.73
2023-04-27T05:10:28.535Z,30.74
2023-04-27T05:11:28.535Z,30.71
2023-04-27T05:12:28.526Z,30.71
2023-04-27T05:13:28.520Z,30.73
2023-04-27T05:14:28.542Z,30.74
2023-04-27T05:15:28.494Z,30.72
2023-04-27T05:16:28.702Z,30.72
2023-04-27T05:17:28.526Z,30.74
2023-04-27T05:18:28.483Z,30.71
2023-04-27T05:19:28.516Z,30.75
2023-04-27T05:20:28.659Z,30.72
2023-04-27T05:21:28.603Z,30.74
2023-04-27T05:22:29.152Z,30.95
2023-04-27T05:23:28.710Z,31.06
2023-04-27T05:24:29.653Z,31.19
2023-04-27T05:25:29.120Z,31.27
2023-04-27T05:26:29.124Z,31.31
2023-04-27T05:27:29.154Z,31.37
2023-04-27T05:28:29.132Z,31.45
2023-04-27T05:29:29.015Z,31.55
2023-04-27T05:30:29.058Z,31.55
2023-04-27T05:31:29.124Z,31.59
2023-04-27T05:32:29.209Z,31.62
2023-04-27T05:33:29.189Z,31.78
2023-04-27T05:34:29.216Z,31.79
2023-04-27T05:35:29.660Z,31.83
2023-04-27T05:36:29.272Z,32.00
2023-04-27T05:37:30.149Z,32.09
2023-04-27T05:38:29.328Z,32.07
2023-04-27T05:39:29.350Z,31.86
2023-04-27T05:40:29.393Z,31.97
2023-04-27T05:41:29.418Z,31.95
2023-04-27T05:42:29.660Z,31.97
2023-04-27T05:43:29.514Z,31.95
2023-04-27T05:44:29.568Z,31.95
2023-04-27T05:45:29.729Z,31.93
2023-04-27T05:46:29.626Z,32.08
2023-04-27T05:47:30.203Z,32.10
2023-04-27T05:48:29.649Z,32.18
2023-04-27T05:49:29.647Z,32.39
2023-04-27T05:50:30.188Z,32.39
2023-04-27T05:51:29.692Z,32.55
2023-04-27T05:52:30.165Z,32.65
2023-04-27T05:53:29.722Z,32.67
2023-04-27T05:54:29.742Z,32.84
2023-04-27T05:55:29.765Z,32.99
2023-04-27T05:56:29.793Z,33.32
2023-04-27T05:57:31.174Z,33.29
2023-04-27T05:58:29.802Z,33.49
2023-04-27T05:59:29.884Z,33.72
2023-04-27T06:00:30.412Z,33.81
2023-04-27T06:01:29.825Z,33.99
2023-04-27T06:02:30.285Z,34.15
2023-04-27T06:03:30.061Z,34.23
2023-04-27T06:04:29.929Z,34.35
2023-04-27T06:05:30.239Z,34.42
2023-04-27T06:06:29.807Z,34.52
2023-04-27T06:07:30.199Z,34.56
2023-04-27T06:08:32.676Z,34.75
2023-04-27T06:09:33.039Z,34.91
2023-04-27T06:10:30.695Z,35.10
2023-04-27T06:11:29.824Z,35.30
2023-04-27T06:12:30.177Z,35.55
2023-04-27T06:13:29.825Z,35.53
2023-04-27T06:14:29.820Z,35.66
2023-04-27T06:15:30.195Z,35.68
2023-04-27T06:16:29.916Z,35.68
2023-04-27T06:17:29.856Z,35.71
2023-04-27T06:18:29.767Z,35.81
2023-04-27T06:19:29.766Z,35.84
2023-04-27T06:20:30.726Z,35.90
2023-04-27T06:21:30.674Z,35.98
2023-04-27T06:22:29.776Z,36.13
2023-04-27T06:23:29.830Z,36.25
2023-04-27T06:24:29.909Z,36.26
2023-04-27T06:25:30.186Z,36.36
2023-04-27T06:26:30.028Z,36.29
2023-04-27T06:27:30.184Z,36.49
2023-04-27T06:28:30.138Z,36.55
2023-04-27T06:29:30.183Z,36.70
2023-04-27T06:30:30.684Z,36.68
2023-04-27T06:31:30.269Z,36.78
2023-04-27T06:32:33.535Z,36.77
2023-04-27T06:33:30.309Z,36.78
2023-04-27T06:34:30.313Z,36.82
2023-04-27T06:35:30.334Z,36.84
2023-04-27T06:36:30.737Z,36.87
2023-04-27T06:37:33.507Z,37.03
2023-04-27T06:38:30.280Z,37.11
2023-04-27T06:39:30.270Z,37.21
2023-04-27T06:40:30.265Z,37.27
2023-04-27T06:41:30.692Z,37.34
2023-04-27T06:42:30.249Z,36.49
2023-04-27T06:43:30.251Z,34.97
2023-04-27T06:44:30.251Z,35.18
2023-04-27T06:45:30.695Z,34.60
2023-04-27T06:46:30.722Z,34.37
2023-04-27T06:47:33.406Z,34.36
2023-04-27T06:48:30.214Z,34.26
2023-04-27T06:49:31.193Z,34.62
2023-04-27T06:50:30.198Z,34.41
2023-04-27T06:51:30.199Z,34.45
2023-04-27T06:52:30.199Z,34.85
2023-04-27T06:53:30.237Z,34.71
2023-04-27T06:54:33.367Z,34.91
2023-04-27T06:55:30.193Z,35.02
2023-04-27T06:56:30.199Z,35.07
2023-04-27T06:57:30.137Z,34.99
2023-04-27T06:58:31.187Z,35.04
2023-04-27T06:59:30.129Z,35.15
2023-04-27T07:00:31.418Z,35.03
2023-04-27T07:01:31.168Z,35.30
2023-04-27T07:02:30.127Z,35.34
2023-04-27T07:03:31.347Z,35.51
2023-04-27T07:04:30.178Z,35.58
2023-04-27T07:05:30.086Z,35.72
2023-04-27T07:06:30.081Z,35.77
2023-04-27T07:07:30.074Z,35.72
2023-04-27T07:08:30.238Z,35.82
2023-04-27T07:09:30.369Z,36.06
2023-04-27T07:10:30.122Z,36.06
2023-04-27T07:11:30.138Z,36.31
2023-04-27T07:12:30.141Z,36.12
2023-04-27T07:13:30.178Z,35.99
2023-04-27T07:14:30.193Z,36.03
2023-04-27T07:15:30.877Z,36.24
2023-04-27T07:16:30.370Z,36.29
2023-04-27T07:17:30.339Z,36.28
2023-04-27T07:18:30.312Z,36.31
2023-04-27T07:19:30.315Z,36.26
2023-04-27T07:20:30.323Z,36.27
2023-04-27T07:21:30.373Z,36.23
2023-04-27T07:22:30.436Z,36.27
2023-04-27T07:23:30.713Z,36.27
2023-04-27T07:24:30.564Z,36.32
2023-04-27T07:25:30.575Z,36.37
2023-04-27T07:26:30.733Z,36.32
2023-04-27T07:27:30.664Z,36.30
2023-04-27T07:28:30.727Z,36.28
2023-04-27T07:29:31.042Z,36.42
2023-04-27T07:30:30.957Z,36.48
2023-04-27T07:31:31.273Z,36.56
2023-04-27T07:32:30.831Z,36.57
2023-04-27T07:33:34.016Z,36.58
2023-04-27T07:34:41.089Z,36.54
2023-04-27T07:35:30.813Z,36.64
2023-04-27T07:36:31.212Z,36.77
2023-04-27T07:37:30.813Z,36.76
2023-04-27T07:38:31.052Z,36.98
2023-04-27T07:39:31.032Z,37.12
2023-04-27T07:40:31.051Z,37.18
2023-04-27T07:41:31.076Z,37.14
2023-04-27T07:42:31.019Z,37.29
2023-04-27T07:43:31.047Z,37.39
2023-04-27T07:44:30.970Z,37.34
2023-04-27T07:45:30.797Z,37.34
2023-04-27T07:46:31.212Z,37.54
2023-04-27T07:47:30.989Z,37.86
2023-04-27T07:48:31.435Z,37.76
2023-04-27T07:49:30.945Z,37.93
2023-04-27T07:50:30.711Z,37.91
2023-04-27T07:51:30.727Z,37.96
2023-04-27T07:52:30.719Z,38.13
2023-04-27T07:53:30.691Z,38.00
2023-04-27T07:54:31.074Z,38.06
2023-04-27T07:55:30.691Z,38.06
2023-04-27T07:56:30.760Z,38.10
2023-04-27T07:57:32.036Z,38.06
2023-04-27T07:58:30.818Z,38.12
2023-04-27T07:59:30.876Z,38.20
2023-04-27T08:00:30.893Z,38.12
2023-04-27T08:01:31.028Z,38.25
2023-04-27T08:02:31.395Z,38.27
2023-04-27T08:03:31.197Z,38.29
2023-04-27T08:04:31.347Z,38.37
2023-04-27T08:05:31.466Z,38.52
2023-04-27T08:06:31.429Z,38.40
2023-04-27T08:07:32.739Z,38.69
2023-04-27T08:08:31.226Z,38.69
2023-04-27T08:09:31.113Z,38.73
2023-04-27T08:10:31.103Z,38.63
2023-04-27T08:11:31.248Z,38.82
2023-04-27T08:12:34.314Z,39.02
2023-04-27T08:13:31.227Z,39.16
2023-04-27T08:14:31.092Z,39.13
2023-04-27T08:15:31.094Z,39.03
2023-04-27T08:16:31.293Z,39.28
2023-04-27T08:17:31.151Z,39.45
2023-04-27T08:18:31.741Z,39.51
2023-04-27T08:19:31.048Z,39.46
2023-04-27T08:20:31.242Z,39.43
2023-04-27T08:21:31.032Z,39.45
2023-04-27T08:22:31.073Z,39.18
2023-04-27T08:23:31.033Z,39.59
2023-04-27T08:24:32.071Z,39.74
2023-04-27T08:25:32.035Z,39.66
2023-04-27T08:26:31.003Z,39.64
2023-04-27T08:27:31.043Z,39.76
2023-04-27T08:28:31.260Z,39.84
2023-04-27T08:29:38.440Z,39.89
2023-04-27T08:30:31.042Z,39.97
2023-04-27T08:31:31.073Z,39.99
2023-04-27T08:32:31.335Z,40.07
2023-04-27T08:33:31.046Z,40.09
2023-04-27T08:34:31.065Z,40.12
2023-04-27T08:35:31.109Z,40.16
2023-04-27T08:36:30.944Z,40.24
2023-04-27T08:37:31.251Z,40.23
2023-04-27T08:38:31.246Z,40.25
2023-04-27T08:39:30.925Z,40.32
2023-04-27T08:40:30.913Z,40.29
2023-04-27T08:41:30.931Z,40.44
2023-04-27T08:42:30.976Z,40.26
2023-04-27T08:43:31.245Z,40.25
2023-04-27T08:44:31.265Z,40.08
2023-04-27T08:45:30.874Z,39.87
2023-04-27T08:46:30.901Z,39.18
2023-04-27T08:47:41.863Z,39.15
2023-04-27T08:48:31.269Z,38.69
2023-04-27T08:49:30.879Z,38.63
2023-04-27T08:50:30.854Z,38.93
2023-04-27T08:51:31.264Z,38.30
2023-04-27T08:52:30.847Z,38.15
2023-04-27T08:53:30.820Z,38.21
2023-04-27T08:54:31.269Z,38.06
2023-04-27T08:55:30.837Z,38.01
2023-04-27T08:56:31.252Z,37.37
2023-04-27T08:57:30.796Z,37.12
2023-04-27T08:58:30.786Z,36.92
2023-04-27T08:59:30.785Z,36.43
2023-04-27T09:00:30.891Z,36.29
2023-04-27T09:01:31.313Z,35.94
2023-04-27T09:02:30.814Z,35.83
2023-04-27T09:03:30.981Z,35.59
2023-04-27T09:04:30.883Z,35.17
2023-04-27T09:05:30.751Z,35.08
2023-04-27T09:06:30.818Z,35.09
2023-04-27T09:07:30.734Z,34.89
2023-04-27T09:08:30.717Z,35.01
2023-04-27T09:09:30.901Z,35.02
2023-04-27T09:10:30.773Z,34.77
2023-04-27T09:11:30.764Z,34.63
2023-04-27T09:12:30.785Z,34.66
2023-04-27T09:13:30.703Z,34.39
2023-04-27T09:14:30.687Z,34.32
2023-04-27T09:15:30.672Z,34.37
2023-04-27T09:16:30.851Z,34.17
2023-04-27T09:17:30.852Z,34.30
2023-04-27T09:18:30.700Z,34.15
2023-04-27T09:19:30.784Z,34.22
2023-04-27T09:20:30.890Z,34.11
2023-04-27T09:21:31.303Z,34.08
2023-04-27T09:22:30.900Z,34.14
2023-04-27T09:23:31.036Z,34.10
2023-04-27T09:24:31.041Z,34.13
2023-04-27T09:25:31.085Z,34.16
2023-04-27T09:26:31.261Z,34.17
2023-04-27T09:27:31.277Z,34.14
2023-04-27T09:28:31.219Z,34.18
2023-04-27T09:29:31.273Z,34.19
2023-04-27T09:30:32.134Z,34.22
2023-04-27T09:31:31.417Z,34.23
2023-04-27T09:32:31.512Z,34.28
2023-04-27T09:33:31.462Z,34.29
2023-04-27T09:34:31.506Z,34.30
2023-04-27T09:35:31.537Z,34.31
2023-04-27T09:36:32.097Z,34.31
2023-04-27T09:37:39.496Z,34.30
2023-04-27T09:38:31.640Z,34.28
2023-04-27T09:39:31.622Z,34.30
2023-04-27T09:40:31.624Z,34.28
2023-04-27T09:41:31.599Z,34.25
2023-04-27T09:42:32.113Z,34.23
2023-04-27T09:43:31.638Z,34.23
2023-04-27T09:44:34.269Z,34.25
2023-04-27T09:45:31.613Z,34.24
2023-04-27T09:46:32.131Z,34.23
2023-04-27T09:47:32.136Z,34.25
2023-04-27T09:48:31.714Z,34.32
2023-04-27T09:49:31.570Z,34.29
2023-04-27T09:50:31.547Z,34.27
2023-04-27T09:51:31.532Z,34.28
2023-04-27T09:52:31.526Z,34.30
2023-04-27T09:53:31.513Z,34.27
2023-04-27T09:54:31.506Z,34.28
2023-04-27T09:55:31.557Z,34.28
2023-04-27T09:56:32.120Z,34.28
2023-04-27T09:57:31.489Z,34.29
2023-04-27T09:58:32.141Z,34.27
2023-04-27T09:59:32.131Z,34.27
2023-04-27T10:00:31.476Z,34.28
2023-04-27T10:01:31.481Z,34.27
2023-04-27T10:02:34.997Z,34.27
2023-04-27T10:03:31.574Z,34.29
2023-04-27T10:04:32.388Z,34.29
2023-04-27T10:05:31.457Z,34.28
2023-04-27T10:06:31.440Z,34.26
2023-04-27T10:07:31.454Z,34.24
2023-04-27T10:08:31.421Z,34.25
2023-04-27T10:09:31.813Z,34.25
2023-04-27T10:10:31.411Z,34.23
2023-04-27T10:11:31.402Z,34.23
2023-04-27T10:12:31.402Z,34.19
2023-04-27T10:13:31.398Z,34.22
2023-04-27T10:14:31.784Z,34.22
2023-04-27T10:15:31.388Z,34.22
2023-04-27T10:16:32.340Z,34.26
2023-04-27T10:17:31.481Z,34.27
2023-04-27T10:18:32.123Z,34.28
2023-04-27T10:19:31.507Z,34.28
2023-04-27T10:20:31.589Z,34.28
2023-04-27T10:21:32.118Z,34.46
2023-04-27T10:22:31.650Z,34.46
2023-04-27T10:23:32.157Z,34.45
2023-04-27T10:24:32.314Z,34.34
2023-04-27T10:25:32.116Z,34.41
2023-04-27T10:26:32.964Z,34.47
2023-04-27T10:27:32.125Z,34.52
2023-04-27T10:28:32.295Z,34.61
2023-04-27T10:29:32.120Z,34.64
2023-04-27T10:30:32.275Z,34.78
2023-04-27T10:31:32.243Z,34.72
2023-04-27T10:32:32.324Z,34.97
2023-04-27T10:33:32.115Z,34.88
2023-04-27T10:34:32.296Z,35.01
2023-04-27T10:35:32.039Z,35.07
2023-04-27T10:36:31.804Z,35.16
2023-04-27T10:37:31.809Z,35.17
2023-04-27T10:38:31.839Z,35.27
2023-04-27T10:39:46.223Z,35.29
2023-04-27T10:40:31.878Z,35.43
2023-04-27T10:41:31.850Z,35.37
2023-04-27T10:42:31.843Z,35.51
2023-04-27T10:43:31.944Z,35.54
2023-04-27T10:44:32.310Z,35.54
2023-04-27T10:45:32.085Z,35.53
2023-04-27T10:46:32.353Z,35.65
2023-04-27T10:47:31.838Z,35.65
2023-04-27T10:48:31.823Z,35.67
2023-04-27T10:49:31.806Z,35.65
2023-04-27T10:50:31.795Z,35.66
2023-04-27T10:51:31.790Z,35.66
2023-04-27T10:52:31.813Z,35.66
2023-04-27T10:53:31.779Z,35.72
2023-04-27T10:54:31.768Z,35.79
2023-04-27T10:55:31.843Z,35.90
2023-04-27T10:56:31.749Z,35.92
2023-04-27T10:57:31.751Z,35.97
2023-04-27T10:58:44.933Z,36.00
2023-04-27T10:59:31.811Z,36.07
2023-04-27T11:00:31.747Z,36.11
2023-04-27T11:01:31.783Z,36.11
2023-04-27T11:02:31.768Z,36.12
2023-04-27T11:03:31.847Z,36.16
2023-04-27T11:04:31.859Z,36.18
2023-04-27T11:05:31.681Z,36.15
2023-04-27T11:06:31.836Z,36.20
2023-04-27T11:07:31.673Z,36.23
2023-04-27T11:08:31.705Z,36.23
2023-04-27T11:09:31.655Z,36.23
2023-04-27T11:10:31.848Z,36.26
2023-04-27T11:11:31.830Z,36.34
2023-04-27T11:12:31.660Z,36.27
2023-04-27T11:13:31.616Z,36.27
2023-04-27T11:14:31.820Z,36.31
2023-04-27T11:15:31.639Z,36.25
2023-04-27T11:16:33.011Z,36.14
2023-04-27T11:17:31.769Z,36.16
2023-04-27T11:18:31.701Z,36.12
2023-04-27T11:19:31.680Z,36.09
2023-04-27T11:20:31.674Z,36.00
2023-04-27T11:21:32.153Z,35.97
2023-04-27T11:22:31.679Z,35.99
2023-04-27T11:23:31.684Z,36.01
2023-04-27T11:24:31.746Z,35.96
2023-04-27T11:25:31.705Z,36.00
2023-04-27T11:26:32.167Z,36.02
2023-04-27T11:27:31.707Z,35.99
2023-04-27T11:28:31.715Z,36.01
2023-04-27T11:29:33.941Z,36.07
2023-04-27T11:30:31.702Z,36.03
2023-04-27T11:31:31.721Z,36.08
2023-04-27T11:32:31.789Z,36.03
2023-04-27T11:33:31.675Z,36.05
2023-04-27T11:34:31.677Z,36.09
2023-04-27T11:35:31.665Z,36.07
2023-04-27T11:36:31.660Z,36.01
2023-04-27T11:37:31.671Z,36.08
2023-04-27T11:38:31.665Z,36.13
2023-04-27T11:39:31.639Z,36.11
2023-04-27T11:40:31.682Z,36.13
2023-04-27T11:41:32.166Z,36.13
2023-04-27T11:42:31.676Z,36.16
2023-04-27T11:43:31.626Z,36.15
2023-04-27T11:44:31.617Z,36.22
2023-04-27T11:45:31.601Z,36.18
2023-04-27T11:46:31.628Z,36.18
2023-04-27T11:47:31.631Z,36.19
2023-04-27T11:48:31.586Z,36.20
2023-04-27T11:49:32.164Z,36.25
2023-04-27T11:50:31.572Z,36.24
2023-04-27T11:51:31.558Z,36.28
2023-04-27T11:52:31.560Z,36.27
2023-04-27T11:53:31.558Z,36.29
2023-04-27T11:54:31.549Z,36.29
2023-04-27T11:55:31.533Z,36.30
2023-04-27T11:56:31.571Z,36.30
2023-04-27T11:57:31.536Z,36.29
2023-04-27T11:58:31.518Z,36.36
2023-04-27T11:59:31.513Z,36.35
2023-04-27T12:00:32.186Z,36.36
2023-04-27T12:01:37.519Z,36.36
2023-04-27T12:02:31.761Z,36.34
2023-04-27T12:03:31.862Z,36.35
2023-04-27T12:04:32.315Z,36.42
2023-04-27T12:05:31.775Z,36.35
2023-04-27T12:06:33.519Z,36.38
2023-04-27T12:07:31.453Z,36.34
2023-04-27T12:08:31.471Z,35.91
2023-04-27T12:09:31.513Z,34.63
2023-04-27T12:10:31.840Z,34.45
2023-04-27T12:11:31.428Z,34.57
2023-04-27T12:12:31.442Z,34.54
2023-04-27T12:13:31.845Z,34.63
2023-04-27T12:14:31.422Z,34.46
2023-04-27T12:15:31.406Z,34.22
2023-04-27T12:16:31.444Z,34.17
2023-04-27T12:17:31.481Z,33.69
2023-04-27T12:18:31.376Z,33.62
2023-04-27T12:19:31.365Z,33.78
2023-04-27T12:20:31.365Z,33.71
2023-04-27T12:21:31.363Z,33.67
2023-04-27T12:22:31.351Z,33.62
2023-04-27T12:23:31.355Z,33.24
2023-04-27T12:24:31.340Z,33.13
2023-04-27T12:25:31.328Z,33.16
2023-04-27T12:26:31.318Z,33.30
2023-04-27T12:27:31.314Z,33.06
2023-04-27T12:28:31.341Z,33.08
2023-04-27T12:29:31.300Z,33.22
2023-04-27T12:30:31.351Z,33.34
2023-04-27T12:31:31.366Z,32.89
2023-04-27T12:32:31.348Z,32.97
2023-04-27T12:33:31.856Z,33.18
2023-04-27T12:34:31.290Z,33.02
2023-04-27T12:35:31.356Z,33.07
2023-04-27T12:36:31.272Z,33.21
2023-04-27T12:37:31.402Z,33.13
2023-04-27T12:38:31.270Z,33.00
2023-04-27T12:39:31.255Z,33.31
2023-04-27T12:40:31.374Z,33.56
2023-04-27T12:41:31.272Z,33.62
2023-04-27T12:42:31.292Z,33.68
2023-04-27T12:43:31.357Z,33.73
2023-04-27T12:44:31.322Z,33.61
2023-04-27T12:45:31.371Z,33.83
2023-04-27T12:46:31.342Z,33.73
2023-04-27T12:48:30.351Z,34.01
2023-04-27T12:49:31.330Z,34.03
2023-04-27T12:50:31.320Z,34.00
2023-04-27T12:51:31.313Z,34.13
2023-04-27T12:52:31.305Z,34.11
2023-04-27T12:53:31.300Z,34.10